Terminal Aerodrome Forecast
Issued by NWS Sterling, VA

Current Version | Previous Version | Graphics & Text | Print | Product List | Glossary On
Versions: 1 2 3 4 5 6 7 8 9 10 11 12 13 14 15 16 17 18 19 20 21 22 23 24
627
FTUS41 KLWX 020131 AAA
TAFDCA
TAF AMD
KDCA 020131Z 0202/0224 32016G24KT P6SM FEW080
     FM020330 28010KT P6SM FEW080
     FM021400 29013G19KT P6SM FEW050
     FM022300 29009KT P6SM FEW050=

USA.gov is the U.S. government's official web portal to all federal, state and local government web resources and services.